Time,TemperatureF,DewpointF,PressureIn,WindDirection,WindDirectionDegrees,WindSpeedMPH,WindSpeedGustMPH,Humidity,HourlyPrecipIn,Conditions,Clouds,dailyrainin,SoftwareType,DateUTC
2013-03-05 00:00:00,21.8,18.8,30.22,SW,221,0.0,0.0,88,0.00,,,0.00,WeatherCatV1.02B3,2013-03-05 05:00:00,
2013-03-05 00:01:00,21.8,18.8,30.22,SW,221,0.0,0.0,88,0.00,,,0.00,WeatherCatV1.02B3,2013-03-05 05:01:00,
2013-03-05 00:03:00,21.8,18.8,30.22,SW,221,0.0,0.0,88,0.00,,,0.00,WeatherCatV1.02B3,2013-03-05 05:03:00,
2013-03-05 00:08:00,21.9,18.9,30.22,SW,221,0.0,0.0,88,0.00,,,0.00,WeatherCatV1.02B3,2013-03-05 05:08:00,
2013-03-05 00:13:00,21.9,18.9,30.22,SW,221,0.0,0.0,88,0.00,,,0.00,WeatherCatV1.02B3,2013-03-05 05:13:00,
2013-03-05 00:18:00,22.1,19.1,30.22,SW,221,0.0,0.0,88,0.00,,,0.00,WeatherCatV1.02B3,2013-03-05 05:18:00,
2013-03-05 00:23:00,22.0,19.0,30.22,SW,221,0.0,0.0,88,0.00,,,0.00,WeatherCatV1.02B3,2013-03-05 05:23:00,
2013-03-05 00:28:00,22.0,19.0,30.23,SW,221,0.0,0.0,88,0.00,,,0.00,WeatherCatV1.02B3,2013-03-05 05:28:00,
2013-03-05 00:33:00,21.9,18.9,30.23,SW,221,0.0,0.0,88,0.00,,,0.00,WeatherCatV1.02B3,2013-03-05 05:33:00,
2013-03-05 00:38:00,21.9,18.9,30.23,SW,221,0.0,0.0,88,0.00,,,0.00,WeatherCatV1.02B3,2013-03-05 05:38:00,
2013-03-05 00:43:00,21.9,18.9,30.23,SW,221,0.0,0.0,88,0.00,,,0.00,WeatherCatV1.02B3,2013-03-05 05:43:00,
2013-03-05 00:48:00,21.8,18.8,30.23,SW,221,0.0,0.0,88,0.00,,,0.00,WeatherCatV1.02B3,2013-03-05 05:48:00,
2013-03-05 00:53:00,21.8,18.8,30.23,SW,221,0.0,0.0,88,0.00,,,0.00,WeatherCatV1.02B3,2013-03-05 05:53:00,
2013-03-05 00:58:00,21.7,18.7,30.23,SW,221,0.0,0.0,88,0.00,,,0.00,WeatherCatV1.02B3,2013-03-05 05:58:00,
2013-03-05 01:03:00,21.7,18.7,30.23,SW,221,0.0,0.0,88,0.00,,,0.00,WeatherCatV1.02B3,2013-03-05 06:03:00,
2013-03-05 01:08:00,21.7,19.0,30.23,SW,221,0.0,0.0,89,0.00,,,0.00,WeatherCatV1.02B3,2013-03-05 06:08:00,
2013-03-05 01:13:00,21.7,19.0,30.23,SW,221,0.0,0.0,89,0.00,,,0.00,WeatherCatV1.02B3,2013-03-05 06:13:00,
2013-03-05 01:18:00,21.9,19.2,30.24,SW,221,0.0,0.0,89,0.00,,,0.00,WeatherCatV1.02B3,2013-03-05 06:18:00,
2013-03-05 01:23:00,22.1,19.4,30.24,SW,221,0.0,0.0,89,0.00,,,0.00,WeatherCatV1.02B3,2013-03-05 06:23:00,
2013-03-05 01:28:00,22.1,19.4,30.24,SW,221,0.0,0.0,89,0.00,,,0.00,WeatherCatV1.02B3,2013-03-05 06:28:00,
2013-03-05 01:33:00,22.1,19.4,30.24,SW,221,0.0,0.0,89,0.00,,,0.00,WeatherCatV1.02B3,2013-03-05 06:33:00,
2013-03-05 01:38:00,22.0,19.3,30.24,SW,221,0.0,0.0,89,0.00,,,0.00,WeatherCatV1.02B3,2013-03-05 06:38:00,
2013-03-05 01:43:00,21.9,19.2,30.24,SW,221,0.0,0.0,89,0.00,,,0.00,WeatherCatV1.02B3,2013-03-05 06:43:00,
2013-03-05 01:48:00,21.8,19.1,30.24,SW,221,0.0,0.0,89,0.00,,,0.00,WeatherCatV1.02B3,2013-03-05 06:48:00,
2013-03-05 01:53:00,21.7,19.0,30.24,SW,221,0.0,0.0,89,0.00,,,0.00,WeatherCatV1.02B3,2013-03-05 06:53:00,
2013-03-05 01:58:00,21.7,19.0,30.24,SW,221,0.0,0.0,89,0.00,,,0.00,WeatherCatV1.02B3,2013-03-05 06:58:00,
2013-03-05 02:03:00,21.7,19.0,30.24,SW,221,0.0,0.0,89,0.00,,,0.00,WeatherCatV1.02B3,2013-03-05 07:03:00,
2013-03-05 02:08:00,21.8,19.1,30.24,SW,221,0.0,0.0,89,0.00,,,0.00,WeatherCatV1.02B3,2013-03-05 07:08:00,
2013-03-05 02:13:00,21.7,19.0,30.24,SW,221,0.0,0.0,89,0.00,,,0.00,WeatherCatV1.02B3,2013-03-05 07:13:00,
2013-03-05 02:18:00,21.7,19.0,30.24,SW,221,0.0,0.0,89,0.00,,,0.00,WeatherCatV1.02B3,2013-03-05 07:18:00,
2013-03-05 02:23:00,21.8,19.1,30.24,SW,221,0.0,0.0,89,0.00,,,0.00,WeatherCatV1.02B3,2013-03-05 07:23:00,
2013-03-05 02:28:00,21.9,19.2,30.24,SW,221,0.0,0.0,89,0.00,,,0.00,WeatherCatV1.02B3,2013-03-05 07:28:00,
2013-03-05 02:33:00,22.1,19.4,30.24,SW,221,0.0,0.0,89,0.00,,,0.00,WeatherCatV1.02B3,2013-03-05 07:33:00,
2013-03-05 02:38:00,22.2,19.5,30.23,SW,221,0.0,0.0,89,0.00,,,0.00,WeatherCatV1.02B3,2013-03-05 07:38:00,
2013-03-05 02:43:00,22.2,19.5,30.23,SW,221,0.0,0.0,89,0.00,,,0.00,WeatherCatV1.02B3,2013-03-05 07:43:00,
2013-03-05 02:48:00,22.3,19.6,30.23,SW,221,0.0,0.0,89,0.00,,,0.00,WeatherCatV1.02B3,2013-03-05 07:48:00,
2013-03-05 02:53:00,22.4,19.7,30.23,SW,221,0.0,0.0,89,0.00,,,0.00,WeatherCatV1.02B3,2013-03-05 07:53:00,
2013-03-05 02:58:00,22.6,19.9,30.23,SW,221,0.0,0.0,89,0.00,,,0.00,WeatherCatV1.02B3,2013-03-05 07:58:00,
2013-03-05 03:03:00,22.7,20.0,30.23,SW,221,0.0,0.0,89,0.00,,,0.00,WeatherCatV1.02B3,2013-03-05 08:03:00,
2013-03-05 03:08:00,22.9,20.2,30.23,SW,221,0.0,0.0,89,0.00,,,0.00,WeatherCatV1.02B3,2013-03-05 08:08:00,
2013-03-05 03:13:00,23.1,20.4,30.22,SW,221,0.0,0.0,89,0.00,,,0.00,WeatherCatV1.02B3,2013-03-05 08:13:00,
2013-03-05 03:18:00,23.4,20.6,30.23,SW,221,0.0,0.0,89,0.00,,,0.00,WeatherCatV1.02B3,2013-03-05 08:18:00,
2013-03-05 03:23:00,23.7,20.9,30.22,SW,221,0.0,0.0,89,0.00,,,0.00,WeatherCatV1.02B3,2013-03-05 08:23:00,
2013-03-05 03:28:00,24.0,21.5,30.22,SW,221,0.0,0.0,90,0.00,,,0.00,WeatherCatV1.02B3,2013-03-05 08:28:00,
2013-03-05 03:33:00,24.2,21.4,30.22,SW,221,0.0,0.0,89,0.00,,,0.00,WeatherCatV1.02B3,2013-03-05 08:33:00,
2013-03-05 03:38:00,24.3,21.8,30.22,SW,221,0.0,0.0,90,0.00,,,0.00,WeatherCatV1.02B3,2013-03-05 08:38:00,
2013-03-05 03:43:00,24.4,21.9,30.22,SW,221,0.0,0.0,90,0.00,,,0.00,WeatherCatV1.02B3,2013-03-05 08:43:00,
2013-03-05 03:48:00,24.3,21.8,30.22,SW,221,0.0,0.0,90,0.00,,,0.00,WeatherCatV1.02B3,2013-03-05 08:48:00,
2013-03-05 03:53:00,24.2,21.4,30.22,SW,221,0.0,0.0,89,0.00,,,0.00,WeatherCatV1.02B3,2013-03-05 08:53:00,
2013-03-05 03:58:00,24.0,21.2,30.22,SW,221,0.0,0.0,89,0.00,,,0.00,WeatherCatV1.02B3,2013-03-05 08:58:00,
2013-03-05 04:03:00,23.8,21.3,30.22,SW,221,0.0,0.0,90,0.00,,,0.00,WeatherCatV1.02B3,2013-03-05 09:03:00,
2013-03-05 04:08:00,23.7,20.9,30.22,SW,221,0.0,0.0,89,0.00,,,0.00,WeatherCatV1.02B3,2013-03-05 09:08:00,
2013-03-05 04:13:00,23.4,20.6,30.21,SW,221,0.0,0.0,89,0.00,,,0.00,WeatherCatV1.02B3,2013-03-05 09:13:00,
2013-03-05 04:18:00,23.2,20.4,30.21,SW,221,0.0,0.0,89,0.00,,,0.00,WeatherCatV1.02B3,2013-03-05 09:18:00,
2013-03-05 04:23:00,23.0,20.3,30.21,SW,221,0.0,0.0,89,0.00,,,0.00,WeatherCatV1.02B3,2013-03-05 09:23:00,
2013-03-05 04:28:00,22.7,20.0,30.21,SW,221,0.0,0.0,89,0.00,,,0.00,WeatherCatV1.02B3,2013-03-05 09:28:00,
2013-03-05 04:33:00,22.5,19.8,30.21,SW,221,0.0,0.0,89,0.00,,,0.00,WeatherCatV1.02B3,2013-03-05 09:33:00,
2013-03-05 04:38:00,22.3,19.6,30.21,SW,221,0.0,0.0,89,0.00,,,0.00,WeatherCatV1.02B3,2013-03-05 09:38:00,
2013-03-05 04:43:00,22.0,19.3,30.21,SW,221,0.0,0.0,89,0.00,,,0.00,WeatherCatV1.02B3,2013-03-05 09:43:00,
2013-03-05 04:48:00,21.9,19.2,30.21,SW,221,0.0,0.0,89,0.00,,,0.00,WeatherCatV1.02B3,2013-03-05 09:48:00,
2013-03-05 04:53:00,21.8,19.1,30.21,SW,221,0.0,0.0,89,0.00,,,0.00,WeatherCatV1.02B3,2013-03-05 09:53:00,
2013-03-05 04:58:00,21.8,19.1,30.21,SW,221,0.0,0.0,89,0.00,,,0.00,WeatherCatV1.02B3,2013-03-05 09:58:00,
2013-03-05 05:03:00,21.8,19.1,30.21,SW,221,0.0,0.0,89,0.00,,,0.00,WeatherCatV1.02B3,2013-03-05 10:03:00,
2013-03-05 05:08:00,21.9,19.2,30.21,SW,221,0.0,0.0,89,0.00,,,0.00,WeatherCatV1.02B3,2013-03-05 10:08:00,
2013-03-05 05:13:00,22.0,19.3,30.21,SW,221,0.0,0.0,89,0.00,,,0.00,WeatherCatV1.02B3,2013-03-05 10:13:00,
2013-03-05 05:18:00,22.3,19.6,30.21,SW,221,0.0,0.0,89,0.00,,,0.00,WeatherCatV1.02B3,2013-03-05 10:18:00,
2013-03-05 05:23:00,22.6,19.9,30.20,SW,221,0.0,0.0,89,0.00,,,0.00,WeatherCatV1.02B3,2013-03-05 10:23:00,
2013-03-05 05:28:00,22.8,20.1,30.20,SW,221,0.0,0.0,89,0.00,,,0.00,WeatherCatV1.02B3,2013-03-05 10:28:00,
2013-03-05 05:33:00,22.9,20.2,30.20,SW,221,0.0,0.0,89,0.00,,,0.00,WeatherCatV1.02B3,2013-03-05 10:33:00,
2013-03-05 05:38:00,23.0,20.3,30.20,SW,221,0.0,0.0,89,0.00,,,0.00,WeatherCatV1.02B3,2013-03-05 10:38:00,
2013-03-05 05:43:00,23.1,20.6,30.20,SW,221,0.0,0.0,90,0.00,,,0.00,WeatherCatV1.02B3,2013-03-05 10:43:00,
2013-03-05 05:48:00,23.2,20.7,30.20,SW,221,0.0,0.0,90,0.00,,,0.00,WeatherCatV1.02B3,2013-03-05 10:48:00,
2013-03-05 05:53:00,23.3,20.8,30.20,SW,221,0.0,0.0,90,0.00,,,0.00,WeatherCatV1.02B3,2013-03-05 10:53:00,
2013-03-05 05:58:00,23.4,20.9,30.20,SW,221,0.0,0.0,90,0.00,,,0.00,WeatherCatV1.02B3,2013-03-05 10:58:00,
2013-03-05 06:03:00,23.5,21.0,30.21,SW,221,0.0,0.0,90,0.00,,,0.00,WeatherCatV1.02B3,2013-03-05 11:03:00,
2013-03-05 06:08:00,23.7,21.2,30.21,SW,221,0.0,0.0,90,0.00,,,0.00,WeatherCatV1.02B3,2013-03-05 11:08:00,
2013-03-05 06:13:00,23.9,21.4,30.21,SW,221,0.0,0.0,90,0.00,,,0.00,WeatherCatV1.02B3,2013-03-05 11:13:00,
2013-03-05 06:18:00,24.0,21.5,30.21,SW,221,0.0,0.0,90,0.00,,,0.00,WeatherCatV1.02B3,2013-03-05 11:18:00,
2013-03-05 06:23:00,24.2,21.7,30.21,NE,44,0.0,1.0,90,0.00,,,0.00,WeatherCatV1.02B3,2013-03-05 11:23:00,
2013-03-05 06:28:00,24.4,21.9,30.20,NE,44,0.0,0.0,90,0.00,,,0.00,WeatherCatV1.02B3,2013-03-05 11:28:00,
2013-03-05 06:33:00,24.5,22.0,30.20,NE,44,0.0,0.0,90,0.00,,,0.00,WeatherCatV1.02B3,2013-03-05 11:33:00,
2013-03-05 06:38:00,24.6,22.1,30.20,NE,44,0.0,0.0,90,0.00,,,0.00,WeatherCatV1.02B3,2013-03-05 11:38:00,
2013-03-05 06:43:00,24.6,22.1,30.20,SSW,195,1.0,2.0,90,0.00,,,0.00,WeatherCatV1.02B3,2013-03-05 11:43:00,
2013-03-05 06:48:00,24.7,22.2,30.20,NE,50,0.0,2.0,90,0.00,,,0.00,WeatherCatV1.02B3,2013-03-05 11:48:00,
2013-03-05 06:53:00,24.8,22.3,30.20,NE,50,0.0,0.0,90,0.00,,,0.00,WeatherCatV1.02B3,2013-03-05 11:53:00,
2013-03-05 06:58:00,24.9,22.1,30.20,NE,49,1.0,1.0,89,0.00,,,0.00,WeatherCatV1.02B3,2013-03-05 11:58:00,
2013-03-05 07:03:00,24.9,22.1,30.20,ENE,68,0.0,3.0,89,0.00,,,0.00,WeatherCatV1.02B3,2013-03-05 12:03:00,
2013-03-05 07:08:00,24.9,22.1,30.20,ENE,68,0.0,0.0,89,0.00,,,0.00,WeatherCatV1.02B3,2013-03-05 12:08:00,
2013-03-05 07:13:00,24.9,22.1,30.20,ENE,65,1.0,1.0,89,0.00,,,0.00,WeatherCatV1.02B3,2013-03-05 12:13:00,
2013-03-05 07:18:00,25.0,22.2,30.20,ENE,64,0.0,0.0,89,0.00,,,0.00,WeatherCatV1.02B3,2013-03-05 12:18:00,
2013-03-05 07:23:00,25.1,22.1,30.20,North,5,0.0,1.0,88,0.00,,,0.00,WeatherCatV1.02B3,2013-03-05 12:23:00,
2013-03-05 07:28:00,25.0,22.0,30.20,North,5,0.0,3.0,88,0.00,,,0.00,WeatherCatV1.02B3,2013-03-05 12:28:00,
2013-03-05 07:33:00,25.0,22.0,30.20,ENE,63,0.0,1.0,88,0.00,,,0.00,WeatherCatV1.02B3,2013-03-05 12:33:00,
2013-03-05 07:38:00,24.9,21.9,30.20,NNE,22,0.0,1.0,88,0.00,,,0.00,WeatherCatV1.02B3,2013-03-05 12:38:00,
2013-03-05 07:43:00,24.9,21.9,30.20,NNE,32,0.0,2.0,88,0.00,,,0.00,WeatherCatV1.02B3,2013-03-05 12:43:00,
2013-03-05 07:48:00,24.9,21.9,30.19,ENE,69,0.0,0.0,88,0.00,,,0.00,WeatherCatV1.02B3,2013-03-05 12:48:00,
2013-03-05 07:53:00,25.0,22.0,30.19,NE,36,0.0,1.0,88,0.00,,,0.00,WeatherCatV1.02B3,2013-03-05 12:53:00,
2013-03-05 07:58:00,25.1,21.8,30.19,NE,36,0.0,0.0,87,0.00,,,0.00,WeatherCatV1.02B3,2013-03-05 12:58:00,
2013-03-05 08:03:00,25.3,22.0,30.19,NE,56,0.0,1.0,87,0.00,,,0.00,WeatherCatV1.02B3,2013-03-05 13:03:00,
2013-03-05 08:08:00,25.3,22.0,30.19,NE,56,0.0,1.0,87,0.00,,,0.00,WeatherCatV1.02B3,2013-03-05 13:08:00,
2013-03-05 08:13:00,25.3,22.0,30.19,ESE,113,0.0,0.0,87,0.00,,,0.00,WeatherCatV1.02B3,2013-03-05 13:13:00,
2013-03-05 08:18:00,25.4,22.1,30.19,ESE,113,0.0,0.0,87,0.00,,,0.00,WeatherCatV1.02B3,2013-03-05 13:18:00,
2013-03-05 08:23:00,25.4,22.1,30.19,NNE,22,0.0,0.0,87,0.00,,,0.00,WeatherCatV1.02B3,2013-03-05 13:23:00,
2013-03-05 08:28:00,25.5,22.2,30.19,NE,41,0.0,2.0,87,0.00,,,0.00,WeatherCatV1.02B3,2013-03-05 13:28:00,
2013-03-05 08:33:00,25.5,22.2,30.19,NNE,26,2.0,2.0,87,0.00,,,0.00,WeatherCatV1.02B3,2013-03-05 13:33:00,
2013-03-05 08:38:00,25.4,22.1,30.19,ENE,69,1.0,1.0,87,0.00,,,0.00,WeatherCatV1.02B3,2013-03-05 13:38:00,
2013-03-05 08:43:00,25.3,22.0,30.19,SE,131,4.0,4.0,87,0.00,,,0.00,WeatherCatV1.02B3,2013-03-05 13:43:00,
2013-03-05 08:48:00,25.4,21.8,30.19,SE,130,0.0,0.0,86,0.00,,,0.00,WeatherCatV1.02B3,2013-03-05 13:48:00,
2013-03-05 08:53:00,25.6,22.0,30.18,ESE,107,0.0,0.0,86,0.00,,,0.00,WeatherCatV1.02B3,2013-03-05 13:53:00,
2013-03-05 08:58:00,25.7,22.4,30.18,SE,129,0.0,1.0,87,0.00,,,0.00,WeatherCatV1.02B3,2013-03-05 13:58:00,
2013-03-05 09:04:00,25.7,22.4,30.18,SSE,165,2.0,3.0,87,0.00,,,0.00,WeatherCatV1.02B3,2013-03-05 14:04:00,
2013-03-05 09:09:00,25.7,22.1,30.18,NE,42,0.0,3.0,86,0.00,,,0.00,WeatherCatV1.02B3,2013-03-05 14:09:00,
2013-03-05 09:14:00,25.8,22.2,30.18,SE,129,0.0,1.0,86,0.00,,,0.00,WeatherCatV1.02B3,2013-03-05 14:14:00,
2013-03-05 09:19:00,25.9,22.3,30.18,ESE,114,0.0,1.0,86,0.00,,,0.00,WeatherCatV1.02B3,2013-03-05 14:19:00,
2013-03-05 09:24:00,25.9,22.3,30.18,NE,38,1.0,2.0,86,0.00,,,0.00,WeatherCatV1.02B3,2013-03-05 14:24:00,
2013-03-05 09:29:00,25.8,22.2,30.18,SSE,159,0.0,2.0,86,0.00,,,0.00,WeatherCatV1.02B3,2013-03-05 14:29:00,
2013-03-05 09:34:00,25.9,22.3,30.18,East,79,0.0,2.0,86,0.00,,,0.00,WeatherCatV1.02B3,2013-03-05 14:34:00,
2013-03-05 09:39:00,26.0,22.4,30.18,East,100,1.0,2.0,86,0.00,,,0.00,WeatherCatV1.02B3,2013-03-05 14:39:00,
2013-03-05 09:44:00,26.1,22.5,30.17,SE,138,0.0,3.0,86,0.00,,,0.00,WeatherCatV1.02B3,2013-03-05 14:44:00,
2013-03-05 09:49:00,26.2,22.6,30.17,SW,217,0.0,2.0,86,0.00,,,0.00,WeatherCatV1.02B3,2013-03-05 14:49:00,
2013-03-05 09:54:00,26.2,22.6,30.17,ESE,117,0.0,4.0,86,0.00,,,0.00,WeatherCatV1.02B3,2013-03-05 14:54:00,
2013-03-05 09:59:00,26.5,22.9,30.17,ESE,106,0.0,0.0,86,0.00,,,0.00,WeatherCatV1.02B3,2013-03-05 14:59:00,
2013-03-05 10:04:00,26.5,22.9,30.18,ESE,120,0.0,0.0,86,0.00,,,0.00,WeatherCatV1.02B3,2013-03-05 15:04:00,
2013-03-05 10:09:00,26.7,23.1,30.17,NE,44,1.0,5.0,86,0.00,,,0.00,WeatherCatV1.02B3,2013-03-05 15:09:00,
2013-03-05 10:14:00,26.6,22.7,30.17,SE,127,1.0,2.0,85,0.00,,,0.00,WeatherCatV1.02B3,2013-03-05 15:14:00,
2013-03-05 10:19:00,26.8,22.9,30.17,NNE,15,0.0,0.0,85,0.00,,,0.00,WeatherCatV1.02B3,2013-03-05 15:19:00,
2013-03-05 10:24:00,27.0,23.1,30.17,ESE,105,0.0,0.0,85,0.00,,,0.00,WeatherCatV1.02B3,2013-03-05 15:24:00,
2013-03-05 10:29:00,27.2,23.3,30.17,NE,55,0.0,2.0,85,0.00,,,0.00,WeatherCatV1.02B3,2013-03-05 15:29:00,
2013-03-05 10:34:00,27.2,23.0,30.17,ENE,63,0.0,0.0,84,0.00,,,0.00,WeatherCatV1.02B3,2013-03-05 15:34:00,
2013-03-05 10:39:00,27.2,23.0,30.17,ESE,114,1.0,3.0,84,0.00,,,0.00,WeatherCatV1.02B3,2013-03-05 15:39:00,
2013-03-05 10:44:00,27.2,23.0,30.17,ENE,74,0.0,3.0,84,0.00,,,0.00,WeatherCatV1.02B3,2013-03-05 15:44:00,
2013-03-05 10:49:00,27.4,23.2,30.17,ENE,63,0.0,2.0,84,0.00,,,0.00,WeatherCatV1.02B3,2013-03-05 15:49:00,
2013-03-05 10:54:00,27.6,23.1,30.17,East,92,1.0,1.0,83,0.00,,,0.00,WeatherCatV1.02B3,2013-03-05 15:54:00,
2013-03-05 10:59:00,27.6,23.1,30.17,NE,36,0.0,0.0,83,0.00,,,0.00,WeatherCatV1.02B3,2013-03-05 15:59:00,
2013-03-05 11:04:00,27.9,23.4,30.17,SE,140,1.0,2.0,83,0.00,,,0.00,WeatherCatV1.02B3,2013-03-05 16:04:00,
2013-03-05 11:09:00,28.0,23.2,30.17,SE,146,0.0,1.0,82,0.00,,,0.00,WeatherCatV1.02B3,2013-03-05 16:09:00,
2013-03-05 11:14:00,28.5,23.7,30.16,NNE,32,2.0,3.0,82,0.00,,,0.00,WeatherCatV1.02B3,2013-03-05 16:14:00,
2013-03-05 11:19:00,28.8,23.7,30.16,SE,132,0.0,2.0,81,0.00,,,0.00,WeatherCatV1.02B3,2013-03-05 16:19:00,
2013-03-05 11:24:00,29.9,24.8,30.15,NE,51,2.0,3.0,81,0.00,,,0.00,WeatherCatV1.02B3,2013-03-05 16:24:00,
2013-03-05 11:29:00,30.0,24.6,30.15,East,96,1.0,2.0,80,0.00,,,0.00,WeatherCatV1.02B3,2013-03-05 16:29:00,
2013-03-05 11:34:00,30.0,24.3,30.15,East,79,0.0,4.0,79,0.00,,,0.00,WeatherCatV1.02B3,2013-03-05 16:34:00,
2013-03-05 11:39:00,30.1,24.1,30.15,ENE,74,0.0,3.0,78,0.00,,,0.00,WeatherCatV1.02B3,2013-03-05 16:39:00,
2013-03-05 11:44:00,30.6,24.6,30.15,ESE,111,2.0,2.0,78,0.00,,,0.00,WeatherCatV1.02B3,2013-03-05 16:44:00,
2013-03-05 11:49:00,30.8,24.8,30.15,North,10,2.0,3.0,78,0.00,,,0.00,WeatherCatV1.02B3,2013-03-05 16:49:00,
2013-03-05 11:54:00,31.6,25.5,30.14,SE,142,2.0,4.0,78,0.00,,,0.00,WeatherCatV1.02B3,2013-03-05 16:54:00,
2013-03-05 11:59:00,30.7,24.0,30.14,SE,144,2.0,2.0,76,0.00,,,0.00,WeatherCatV1.02B3,2013-03-05 16:59:00,
2013-03-05 12:04:00,30.6,24.3,30.14,NNE,22,0.0,4.0,77,0.00,,,0.00,WeatherCatV1.02B3,2013-03-05 17:04:00,
2013-03-05 12:09:00,31.1,24.7,30.13,North,5,3.0,4.0,77,0.00,,,0.00,WeatherCatV1.02B3,2013-03-05 17:09:00,
2013-03-05 12:14:00,31.6,24.9,30.13,NNE,26,2.0,3.0,76,0.00,,,0.00,WeatherCatV1.02B3,2013-03-05 17:14:00,
2013-03-05 12:19:00,31.8,25.1,30.12,East,88,0.0,1.0,76,0.00,,,0.00,WeatherCatV1.02B3,2013-03-05 17:19:00,
2013-03-05 12:24:00,31.9,24.9,30.12,ENE,67,3.0,4.0,75,0.00,,,0.00,WeatherCatV1.02B3,2013-03-05 17:24:00,
2013-03-05 12:29:00,32.7,25.7,30.12,East,101,3.0,4.0,75,0.00,,,0.00,WeatherCatV1.02B3,2013-03-05 17:29:00,
2013-03-05 12:34:00,32.7,25.3,30.12,SE,129,0.0,5.0,74,0.00,,,0.00,WeatherCatV1.02B3,2013-03-05 17:34:00,
2013-03-05 12:39:00,32.7,25.3,30.12,SE,130,3.0,5.0,74,0.00,,,0.00,WeatherCatV1.02B3,2013-03-05 17:39:00,
2013-03-05 12:44:00,33.8,27.1,30.11,NNE,28,0.0,0.0,76,0.00,,,0.00,WeatherCatV1.02B3,2013-03-05 17:44:00,
2013-03-05 12:49:00,34.6,26.5,30.11,NNW,330,0.0,3.0,72,0.00,,,0.00,WeatherCatV1.02B3,2013-03-05 17:49:00,
2013-03-05 12:54:00,34.4,26.3,30.11,NE,34,2.0,3.0,72,0.00,,,0.00,WeatherCatV1.02B3,2013-03-05 17:54:00,
2013-03-05 12:59:00,33.9,26.5,30.10,NE,45,0.0,5.0,74,0.00,,,0.00,WeatherCatV1.02B3,2013-03-05 17:59:00,
2013-03-05 13:04:00,33.4,26.3,30.10,ENE,57,0.0,7.0,75,0.00,,,0.00,WeatherCatV1.02B3,2013-03-05 18:04:00,
2013-03-05 13:09:00,33.4,26.7,30.10,NNW,343,0.0,4.0,76,0.00,,,0.00,WeatherCatV1.02B3,2013-03-05 18:09:00,
2013-03-05 13:14:00,33.8,26.7,30.10,ENE,76,0.0,6.0,75,0.00,,,0.00,WeatherCatV1.02B3,2013-03-05 18:14:00,
2013-03-05 13:19:00,33.3,26.2,30.09,NE,41,2.0,4.0,75,0.00,,,0.00,WeatherCatV1.02B3,2013-03-05 18:19:00,
2013-03-05 13:24:00,33.4,26.7,30.09,NNE,14,2.0,7.0,76,0.00,,,0.00,WeatherCatV1.02B3,2013-03-05 18:24:00,
2013-03-05 13:29:00,33.6,26.9,30.08,NNE,22,1.0,5.0,76,0.00,,,0.00,WeatherCatV1.02B3,2013-03-05 18:29:00,
2013-03-05 13:34:00,33.5,26.8,30.08,North,11,0.0,6.0,76,0.00,,,0.00,WeatherCatV1.02B3,2013-03-05 18:34:00,
2013-03-05 13:39:00,34.2,27.8,30.08,East,84,3.0,4.0,77,0.00,,,0.00,WeatherCatV1.02B3,2013-03-05 18:39:00,
2013-03-05 13:44:00,33.4,26.7,30.07,NNW,330,3.0,5.0,76,0.00,,,0.00,WeatherCatV1.02B3,2013-03-05 18:44:00,
2013-03-05 13:49:00,33.3,26.6,30.07,NNW,334,2.0,6.0,76,0.00,,,0.00,WeatherCatV1.02B3,2013-03-05 18:49:00,
2013-03-05 13:54:00,33.6,27.2,30.07,ENE,75,0.0,5.0,77,0.00,,,0.00,WeatherCatV1.02B3,2013-03-05 18:54:00,
2013-03-05 13:59:00,33.9,27.5,30.07,NE,51,3.0,5.0,77,0.00,,,0.00,WeatherCatV1.02B3,2013-03-05 18:59:00,
2013-03-05 14:04:00,33.7,27.3,30.06,NE,48,1.0,6.0,77,0.00,,,0.00,WeatherCatV1.02B3,2013-03-05 19:04:00,
2013-03-05 14:09:00,33.7,27.0,30.06,East,79,2.0,7.0,76,0.00,,,0.00,WeatherCatV1.02B3,2013-03-05 19:09:00,
2013-03-05 14:14:00,33.3,26.9,30.06,WNW,296,0.0,9.0,77,0.00,,,0.00,WeatherCatV1.02B3,2013-03-05 19:14:00,
2013-03-05 14:19:00,33.8,27.7,30.05,North,350,8.0,8.0,78,0.00,,,0.00,WeatherCatV1.02B3,2013-03-05 19:19:00,
2013-03-05 14:24:00,33.8,27.4,30.05,North,5,6.0,7.0,77,0.00,,,0.00,WeatherCatV1.02B3,2013-03-05 19:24:00,
2013-03-05 14:29:00,33.9,27.5,30.05,NNE,29,5.0,10.0,77,0.00,,,0.00,WeatherCatV1.02B3,2013-03-05 19:29:00,
2013-03-05 14:34:00,33.3,27.2,30.04,ENE,65,4.0,9.0,78,0.00,,,0.00,WeatherCatV1.02B3,2013-03-05 19:34:00,
2013-03-05 14:39:00,33.0,26.9,30.04,ENE,64,1.0,8.0,78,0.00,,,0.00,WeatherCatV1.02B3,2013-03-05 19:39:00,
2013-03-05 14:44:00,32.9,27.1,30.04,ENE,57,3.0,6.0,79,0.00,,,0.00,WeatherCatV1.02B3,2013-03-05 19:44:00,
2013-03-05 14:49:00,32.9,26.8,30.03,East,80,2.0,13.0,78,0.00,,,0.00,WeatherCatV1.02B3,2013-03-05 19:49:00,
2013-03-05 14:54:00,32.7,26.9,30.03,NE,53,0.0,10.0,79,0.00,,,0.00,WeatherCatV1.02B3,2013-03-05 19:54:00,
2013-03-05 14:59:00,32.8,27.0,30.02,NNE,15,5.0,7.0,79,0.00,,,0.00,WeatherCatV1.02B3,2013-03-05 19:59:00,
2013-03-05 15:04:00,32.9,27.1,30.02,East,94,0.0,5.0,79,0.00,,,0.00,WeatherCatV1.02B3,2013-03-05 20:04:00,
2013-03-05 15:09:00,33.0,27.2,30.02,NW,317,8.0,10.0,79,0.00,,,0.00,WeatherCatV1.02B3,2013-03-05 20:09:00,
2013-03-05 15:14:00,33.1,27.3,30.02,ENE,71,5.0,10.0,79,0.00,,,0.00,WeatherCatV1.02B3,2013-03-05 20:14:00,
2013-03-05 15:19:00,32.9,27.1,30.02,ENE,61,3.0,6.0,79,0.00,,,0.00,WeatherCatV1.02B3,2013-03-05 20:19:00,
2013-03-05 15:24:00,32.9,27.1,30.01,NE,53,5.0,5.0,79,0.00,,,0.00,WeatherCatV1.02B3,2013-03-05 20:24:00,
2013-03-05 15:29:00,32.9,27.1,30.01,NNE,22,2.0,11.0,79,0.00,,,0.00,WeatherCatV1.02B3,2013-03-05 20:29:00,
2013-03-05 15:34:00,33.1,27.3,30.00,ENE,60,5.0,9.0,79,0.00,,,0.00,WeatherCatV1.02B3,2013-03-05 20:34:00,
2013-03-05 15:39:00,32.7,26.9,30.00,NE,40,6.0,9.0,79,0.00,,,0.00,WeatherCatV1.02B3,2013-03-05 20:39:00,
2013-03-05 15:44:00,32.5,27.0,30.00,NE,46,4.0,7.0,80,0.00,,,0.00,WeatherCatV1.02B3,2013-03-05 20:44:00,
2013-03-05 15:49:00,32.6,27.1,29.99,ENE,76,2.0,10.0,80,0.00,,,0.00,WeatherCatV1.02B3,2013-03-05 20:49:00,
2013-03-05 15:54:00,32.5,27.0,29.99,NNW,348,3.0,10.0,80,0.00,,,0.00,WeatherCatV1.02B3,2013-03-05 20:54:00,
2013-03-05 15:59:00,32.9,27.7,29.99,NE,51,11.0,11.0,81,0.00,,,0.00,WeatherCatV1.02B3,2013-03-05 20:59:00,
2013-03-05 16:04:00,32.8,27.6,29.99,NNE,32,4.0,9.0,81,0.00,,,0.00,WeatherCatV1.02B3,2013-03-05 21:04:00,
2013-03-05 16:09:00,32.9,27.7,29.99,NNE,28,9.0,10.0,81,0.00,,,0.00,WeatherCatV1.02B3,2013-03-05 21:09:00,
2013-03-05 16:14:00,32.5,27.3,29.99,ENE,62,0.0,13.0,81,0.00,,,0.00,WeatherCatV1.02B3,2013-03-05 21:14:00,
2013-03-05 16:19:00,32.7,27.5,29.99,North,355,2.0,13.0,81,0.00,,,0.00,WeatherCatV1.02B3,2013-03-05 21:19:00,
2013-03-05 16:24:00,32.7,27.5,29.99,NE,56,3.0,4.0,81,0.00,,,0.00,WeatherCatV1.02B3,2013-03-05 21:24:00,
2013-03-05 16:29:00,32.5,27.3,29.99,North,349,0.0,11.0,81,0.00,,,0.00,WeatherCatV1.02B3,2013-03-05 21:29:00,
2013-03-05 16:34:00,32.5,27.6,29.99,ENE,73,2.0,5.0,82,0.00,,,0.00,WeatherCatV1.02B3,2013-03-05 21:34:00,
2013-03-05 16:39:00,32.5,27.6,29.99,ENE,68,2.0,9.0,82,0.00,,,0.00,WeatherCatV1.02B3,2013-03-05 21:39:00,
2013-03-05 16:44:00,32.2,27.0,29.98,ENE,65,2.0,10.0,81,0.00,,,0.00,WeatherCatV1.02B3,2013-03-05 21:44:00,
2013-03-05 16:49:00,31.9,27.0,29.98,ENE,62,3.0,9.0,82,0.00,,,0.00,WeatherCatV1.02B3,2013-03-05 21:49:00,
2013-03-05 16:54:00,31.8,26.9,29.98,East,82,2.0,12.0,82,0.00,,,0.00,WeatherCatV1.02B3,2013-03-05 21:54:00,
2013-03-05 16:59:00,31.8,27.2,29.98,NE,56,6.0,10.0,83,0.00,,,0.00,WeatherCatV1.02B3,2013-03-05 21:59:00,
2013-03-05 17:04:00,31.8,27.2,29.97,NE,52,3.0,13.0,83,0.00,,,0.00,WeatherCatV1.02B3,2013-03-05 22:04:00,
2013-03-05 17:09:00,31.8,27.2,29.97,East,101,0.0,9.0,83,0.00,,,0.00,WeatherCatV1.02B3,2013-03-05 22:09:00,
2013-03-05 17:14:00,31.8,27.2,29.97,ENE,74,4.0,12.0,83,0.00,,,0.00,WeatherCatV1.02B3,2013-03-05 22:14:00,
2013-03-05 17:19:00,31.7,26.8,29.97,NE,36,5.0,10.0,82,0.00,,,0.00,WeatherCatV1.02B3,2013-03-05 22:19:00,
2013-03-05 17:24:00,31.5,26.7,29.96,NE,49,9.0,11.0,82,0.00,,,0.00,WeatherCatV1.02B3,2013-03-05 22:24:00,
2013-03-05 17:29:00,31.3,26.5,29.96,NE,51,1.0,12.0,82,0.00,,,0.00,WeatherCatV1.02B3,2013-03-05 22:29:00,
2013-03-05 17:34:00,31.3,26.7,29.96,East,84,3.0,9.0,83,0.00,,,0.00,WeatherCatV1.02B3,2013-03-05 22:34:00,
2013-03-05 17:39:00,31.4,26.8,29.96,NE,54,2.0,6.0,83,0.00,,,0.00,WeatherCatV1.02B3,2013-03-05 22:39:00,
2013-03-05 17:44:00,31.4,26.8,29.96,NNW,331,2.0,10.0,83,0.00,,,0.00,WeatherCatV1.02B3,2013-03-05 22:44:00,
2013-03-05 17:49:00,31.4,26.8,29.97,East,82,2.0,6.0,83,0.00,,,0.00,WeatherCatV1.02B3,2013-03-05 22:49:00,
2013-03-05 17:54:00,31.4,26.8,29.97,ENE,67,0.0,5.0,83,0.00,,,0.00,WeatherCatV1.02B3,2013-03-05 22:54:00,
2013-03-05 17:59:00,31.4,26.8,29.97,ENE,65,1.0,6.0,83,0.00,,,0.00,WeatherCatV1.02B3,2013-03-05 22:59:00,
2013-03-05 18:04:00,31.4,26.8,29.97,North,9,4.0,7.0,83,0.00,,,0.00,WeatherCatV1.02B3,2013-03-05 23:04:00,
2013-03-05 18:09:00,31.3,26.7,29.97,ENE,71,0.0,6.0,83,0.00,,,0.00,WeatherCatV1.02B3,2013-03-05 23:09:00,
2013-03-05 18:14:00,31.2,26.6,29.97,ENE,61,1.0,3.0,83,0.00,,,0.00,WeatherCatV1.02B3,2013-03-05 23:14:00,
2013-03-05 18:19:00,31.2,26.6,29.96,ENE,61,0.0,4.0,83,0.00,,,0.00,WeatherCatV1.02B3,2013-03-05 23:19:00,
2013-03-05 18:24:00,31.2,26.6,29.96,NNE,33,0.0,2.0,83,0.00,,,0.00,WeatherCatV1.02B3,2013-03-05 23:24:00,
2013-03-05 18:29:00,31.2,26.6,29.96,NNE,19,5.0,7.0,83,0.00,,,0.00,WeatherCatV1.02B3,2013-03-05 23:29:00,
2013-03-05 18:34:00,31.2,26.6,29.95,NE,44,0.0,4.0,83,0.00,,,0.00,WeatherCatV1.02B3,2013-03-05 23:34:00,
2013-03-05 18:39:00,31.2,26.6,29.95,NNE,25,3.0,6.0,83,0.00,,,0.00,WeatherCatV1.02B3,2013-03-05 23:39:00,
2013-03-05 18:44:00,31.3,26.7,29.95,NE,39,3.0,3.0,83,0.00,,,0.00,WeatherCatV1.02B3,2013-03-05 23:44:00,
2013-03-05 18:49:00,31.4,26.8,29.96,ENE,63,0.0,2.0,83,0.00,,,0.00,WeatherCatV1.02B3,2013-03-05 23:49:00,
2013-03-05 18:54:00,31.5,26.7,29.96,ENE,76,0.0,7.0,82,0.00,,,0.00,WeatherCatV1.02B3,2013-03-05 23:54:00,
2013-03-05 18:59:00,31.7,26.8,29.95,NE,48,5.0,6.0,82,0.00,,,0.00,WeatherCatV1.02B3,2013-03-05 23:59:00,
2013-03-05 19:04:00,31.8,26.9,29.96,NE,46,1.0,5.0,82,0.00,,,0.00,WeatherCatV1.02B3,2013-03-06 00:04:00,
2013-03-05 19:09:00,32.0,27.1,29.96,NE,37,3.0,12.0,82,0.00,,,0.00,WeatherCatV1.02B3,2013-03-06 00:09:00,
2013-03-05 19:14:00,32.1,27.2,29.96,ENE,69,4.0,7.0,82,0.00,,,0.00,WeatherCatV1.02B3,2013-03-06 00:14:00,
2013-03-05 19:19:00,32.2,27.3,29.95,ENE,78,3.0,6.0,82,0.00,,,0.00,WeatherCatV1.02B3,2013-03-06 00:19:00,
2013-03-05 19:24:00,32.2,27.3,29.95,North,0,2.0,4.0,82,0.00,,,0.00,WeatherCatV1.02B3,2013-03-06 00:24:00,
2013-03-05 19:29:00,32.3,27.1,29.95,NE,48,2.0,7.0,81,0.00,,,0.00,WeatherCatV1.02B3,2013-03-06 00:29:00,
2013-03-05 19:34:00,32.4,27.2,29.94,ENE,60,2.0,9.0,81,0.00,,,0.00,WeatherCatV1.02B3,2013-03-06 00:34:00,
2013-03-05 19:39:00,32.5,27.6,29.94,ENE,58,4.0,10.0,82,0.00,,,0.00,WeatherCatV1.02B3,2013-03-06 00:39:00,
2013-03-05 19:44:00,32.4,27.5,29.94,NNE,15,5.0,6.0,82,0.00,,,0.00,WeatherCatV1.02B3,2013-03-06 00:44:00,
2013-03-05 19:49:00,32.4,27.5,29.94,ENE,57,3.0,7.0,82,0.00,,,0.00,WeatherCatV1.02B3,2013-03-06 00:49:00,
2013-03-05 19:54:00,32.3,27.7,29.93,East,94,1.0,10.0,83,0.00,,,0.00,WeatherCatV1.02B3,2013-03-06 00:54:00,
2013-03-05 19:59:00,32.3,28.0,29.93,East,101,2.0,12.0,84,0.00,,,0.00,WeatherCatV1.02B3,2013-03-06 00:59:00,
2013-03-05 20:04:00,32.2,27.9,29.92,NNE,27,10.0,10.0,84,0.00,,,0.00,WeatherCatV1.02B3,2013-03-06 01:04:00,
2013-03-05 20:09:00,32.1,27.8,29.93,ENE,60,0.0,6.0,84,0.00,,,0.00,WeatherCatV1.02B3,2013-03-06 01:09:00,
2013-03-05 20:14:00,32.1,28.1,29.92,East,83,0.0,7.0,85,0.00,,,0.00,WeatherCatV1.02B3,2013-03-06 01:14:00,
2013-03-05 20:19:00,32.1,28.1,29.92,ENE,68,2.0,16.0,85,0.00,,,0.00,WeatherCatV1.02B3,2013-03-06 01:19:00,
2013-03-05 20:24:00,32.1,28.1,29.92,ENE,65,6.0,10.0,85,0.00,,,0.00,WeatherCatV1.02B3,2013-03-06 01:24:00,
2013-03-05 20:29:00,32.2,28.2,29.92,ENE,68,3.0,21.0,85,0.00,,,0.00,WeatherCatV1.02B3,2013-03-06 01:29:00,
2013-03-05 20:34:00,32.2,28.2,29.91,NNE,20,5.0,6.0,85,0.00,,,0.00,WeatherCatV1.02B3,2013-03-06 01:34:00,
2013-03-05 20:39:00,32.2,28.2,29.91,NE,49,5.0,12.0,85,0.00,,,0.00,WeatherCatV1.02B3,2013-03-06 01:39:00,
2013-03-05 20:44:00,32.3,28.3,29.91,NE,48,2.0,10.0,85,0.00,,,0.00,WeatherCatV1.02B3,2013-03-06 01:44:00,
2013-03-05 20:49:00,32.4,28.4,29.90,NE,38,3.0,13.0,85,0.00,,,0.00,WeatherCatV1.02B3,2013-03-06 01:49:00,
2013-03-05 20:54:00,32.5,28.5,29.90,ENE,70,1.0,13.0,85,0.00,,,0.00,WeatherCatV1.02B3,2013-03-06 01:54:00,
2013-03-05 20:59:00,32.5,28.5,29.90,ENE,61,2.0,7.0,85,0.00,,,0.00,WeatherCatV1.02B3,2013-03-06 01:59:00,
2013-03-05 21:04:00,32.5,28.5,29.90,NNE,28,5.0,17.0,85,0.00,,,0.00,WeatherCatV1.02B3,2013-03-06 02:04:00,
2013-03-05 21:09:00,32.6,28.6,29.90,NE,34,5.0,5.0,85,0.00,,,0.00,WeatherCatV1.02B3,2013-03-06 02:09:00,
2013-03-05 21:14:00,32.5,28.5,29.89,ENE,76,3.0,13.0,85,0.00,,,0.00,WeatherCatV1.02B3,2013-03-06 02:14:00,
2013-03-05 21:19:00,32.5,28.5,29.88,NNE,27,3.0,8.0,85,0.00,,,0.00,WeatherCatV1.02B3,2013-03-06 02:19:00,
2013-03-05 21:24:00,32.5,28.5,29.88,ENE,75,2.0,5.0,85,0.00,,,0.00,WeatherCatV1.02B3,2013-03-06 02:24:00,
2013-03-05 21:29:00,32.5,28.5,29.88,NNE,33,4.0,10.0,85,0.00,,,0.00,WeatherCatV1.02B3,2013-03-06 02:29:00,
2013-03-05 21:34:00,32.5,28.5,29.87,North,5,3.0,11.0,85,0.00,,,0.00,WeatherCatV1.02B3,2013-03-06 02:34:00,
2013-03-05 21:39:00,32.5,28.5,29.88,ENE,78,3.0,12.0,85,0.00,,,0.00,WeatherCatV1.02B3,2013-03-06 02:39:00,
2013-03-05 21:44:00,32.5,28.5,29.87,NE,40,2.0,6.0,85,0.00,,,0.00,WeatherCatV1.02B3,2013-03-06 02:44:00,
2013-03-05 21:49:00,32.6,28.6,29.88,NE,51,6.0,14.0,85,0.00,,,0.00,WeatherCatV1.02B3,2013-03-06 02:49:00,
2013-03-05 21:54:00,32.6,28.9,29.87,ENE,70,4.0,11.0,86,0.00,,,0.00,WeatherCatV1.02B3,2013-03-06 02:54:00,
2013-03-05 21:59:00,32.6,28.9,29.87,East,80,4.0,5.0,86,0.00,,,0.00,WeatherCatV1.02B3,2013-03-06 02:59:00,
2013-03-05 22:04:00,32.6,28.9,29.87,NE,48,9.0,9.0,86,0.00,,,0.00,WeatherCatV1.02B3,2013-03-06 03:04:00,
2013-03-05 22:09:00,32.6,28.9,29.87,ENE,62,4.0,10.0,86,0.00,,,0.00,WeatherCatV1.02B3,2013-03-06 03:09:00,
2013-03-05 22:14:00,32.6,28.9,29.87,East,91,4.0,7.0,86,0.00,,,0.00,WeatherCatV1.02B3,2013-03-06 03:14:00,
2013-03-05 22:19:00,32.6,28.9,29.87,ENE,59,0.0,5.0,86,0.00,,,0.00,WeatherCatV1.02B3,2013-03-06 03:19:00,
2013-03-05 22:24:00,32.6,28.9,29.87,ENE,71,0.0,6.0,86,0.00,,,0.00,WeatherCatV1.02B3,2013-03-06 03:24:00,
2013-03-05 22:29:00,32.6,28.9,29.87,NNE,17,1.0,6.0,86,0.00,,,0.00,WeatherCatV1.02B3,2013-03-06 03:29:00,
2013-03-05 22:34:00,32.6,28.9,29.87,ENE,63,1.0,2.0,86,0.00,,,0.00,WeatherCatV1.02B3,2013-03-06 03:34:00,
2013-03-05 22:39:00,32.6,28.9,29.87,ENE,72,0.0,12.0,86,0.00,,,0.00,WeatherCatV1.02B3,2013-03-06 03:39:00,
2013-03-05 22:44:00,32.7,29.0,29.87,NE,51,4.0,7.0,86,0.00,,,0.00,WeatherCatV1.02B3,2013-03-06 03:44:00,
2013-03-05 22:49:00,32.7,29.0,29.87,East,99,0.0,7.0,86,0.00,,,0.00,WeatherCatV1.02B3,2013-03-06 03:49:00,
2013-03-05 22:54:00,32.6,28.6,29.87,NNE,33,0.0,10.0,85,0.00,,,0.00,WeatherCatV1.02B3,2013-03-06 03:54:00,
2013-03-05 22:59:00,32.6,28.6,29.87,NNE,22,0.0,7.0,85,0.00,,,0.00,WeatherCatV1.02B3,2013-03-06 03:59:00,
2013-03-05 23:04:00,32.6,28.6,29.87,NNE,21,0.0,4.0,85,0.00,,,0.00,WeatherCatV1.02B3,2013-03-06 04:04:00,
2013-03-05 23:09:00,32.6,28.6,29.87,NW,323,3.0,3.0,85,0.00,,,0.00,WeatherCatV1.02B3,2013-03-06 04:09:00,
2013-03-05 23:14:00,32.6,28.6,29.86,NNE,18,12.0,12.0,85,0.00,,,0.00,WeatherCatV1.02B3,2013-03-06 04:14:00,
2013-03-05 23:19:00,32.6,28.9,29.86,NE,41,4.0,10.0,86,0.00,,,0.00,WeatherCatV1.02B3,2013-03-06 04:19:00,
2013-03-05 23:24:00,32.6,28.9,29.86,NNE,22,1.0,7.0,86,0.00,,,0.00,WeatherCatV1.02B3,2013-03-06 04:24:00,
2013-03-05 23:29:00,32.6,28.9,29.86,NE,48,0.0,4.0,86,0.00,,,0.00,WeatherCatV1.02B3,2013-03-06 04:29:00,
2013-03-05 23:34:00,32.5,28.8,29.86,NE,55,5.0,5.0,86,0.00,,,0.00,WeatherCatV1.02B3,2013-03-06 04:34:00,
2013-03-05 23:39:00,32.5,28.8,29.86,NNE,17,3.0,4.0,86,0.00,,,0.00,WeatherCatV1.02B3,2013-03-06 04:39:00,
2013-03-05 23:44:00,32.6,28.9,29.86,NE,56,5.0,5.0,86,0.00,,,0.00,WeatherCatV1.02B3,2013-03-06 04:44:00,
2013-03-05 23:49:00,32.6,28.9,29.86,East,82,1.0,4.0,86,0.00,,,0.00,WeatherCatV1.02B3,2013-03-06 04:49:00,
2013-03-05 23:54:00,32.6,28.9,29.86,East,79,1.0,3.0,86,0.00,,,0.00,WeatherCatV1.02B3,2013-03-06 04:54:00,
2013-03-05 23:59:00,32.6,28.9,29.86,NNE,19,1.0,4.0,86,0.00,,,0.00,WeatherCatV1.02B3,2013-03-06 04:59:00,